sensor_id;sensor_type;location;lat;lon;timestamp;temperature;humidity
10010;DHT22;5044;48.652;9.250;2023-12-22T01:14:45;6.70;99.90
10010;DHT22;5044;48.652;9.250;2023-12-22T02:06:05;6.50;99.90
10010;DHT22;5044;48.652;9.250;2023-12-22T03:11:05;6.50;99.90
10010;DHT22;5044;48.652;9.250;2023-12-22T07:05:35;6.20;99.90
10010;DHT22;5044;48.652;9.250;2023-12-22T07:15:59;6.00;99.90
10010;DHT22;5044;48.652;9.250;2023-12-22T08:22:57;5.50;99.90
10010;DHT22;5044;48.652;9.250;2023-12-22T08:25:29;5.50;99.90
10010;DHT22;5044;48.652;9.250;2023-12-22T08:28:08;5.60;99.90
10010;DHT22;5044;48.652;9.250;2023-12-22T08:30:42;5.70;99.90
10010;DHT22;5044;48.652;9.250;2023-12-22T08:33:13;5.70;99.90
10010;DHT22;5044;48.652;9.250;2023-12-22T08:35:46;5.30;99.90
10010;DHT22;5044;48.652;9.250;2023-12-22T08:38:25;5.90;99.90
10010;DHT22;5044;48.652;9.250;2023-12-22T08:41:03;6.40;99.90
10010;DHT22;5044;48.652;9.250;2023-12-22T08:43:46;5.90;99.90
10010;DHT22;5044;48.652;9.250;2023-12-22T08:46:26;6.10;99.90
10010;DHT22;5044;48.652;9.250;2023-12-22T08:49:11;6.20;99.90
10010;DHT22;5044;48.652;9.250;2023-12-22T08:51:47;6.10;99.90
10010;DHT22;5044;48.652;9.250;2023-12-22T08:54:45;6.40;99.90
10010;DHT22;5044;48.652;9.250;2023-12-22T08:57:19;6.10;99.90
10010;DHT22;5044;48.652;9.250;2023-12-22T09:00:12;6.10;99.90
10010;DHT22;5044;48.652;9.250;2023-12-22T09:02:47;6.20;99.90
10010;DHT22;5044;48.652;9.250;2023-12-22T09:05:35;5.90;99.90
10010;DHT22;5044;48.652;9.250;2023-12-22T09:08:09;5.80;99.90
10010;DHT22;5044;48.652;9.250;2023-12-22T09:14:10;6.30;99.90
10010;DHT22;5044;48.652;9.250;2023-12-22T09:16:43;6.30;99.90
10010;DHT22;5044;48.652;9.250;2023-12-22T09:19:32;6.40;99.90
10010;DHT22;5044;48.652;9.250;2023-12-22T09:22:16;6.30;99.90
10010;DHT22;5044;48.652;9.250;2023-12-22T09:24:49;6.50;99.90
10010;DHT22;5044;48.652;9.250;2023-12-22T09:27:28;6.60;99.90
10010;DHT22;5044;48.652;9.250;2023-12-22T09:29:59;6.20;99.90
10010;DHT22;5044;48.652;9.250;2023-12-22T09:35:42;6.60;99.90
10010;DHT22;5044;48.652;9.250;2023-12-22T09:38:27;6.70;99.90
10010;DHT22;5044;48.652;9.250;2023-12-22T09:41:05;6.50;99.90
10010;DHT22;5044;48.652;9.250;2023-12-22T09:43:56;6.50;99.90
10010;DHT22;5044;48.652;9.250;2023-12-22T09:46:27;6.50;99.90
10010;DHT22;5044;48.652;9.250;2023-12-22T09:49:02;6.50;99.90
10010;DHT22;5044;48.652;9.250;2023-12-22T09:51:33;7.00;99.90
10010;DHT22;5044;48.652;9.250;2023-12-22T09:54:07;6.60;99.90
10010;DHT22;5044;48.652;9.250;2023-12-22T09:56:34;6.60;99.90
10010;DHT22;5044;48.652;9.250;2023-12-22T09:59:31;6.50;99.90
10010;DHT22;5044;48.652;9.250;2023-12-22T10:02:26;6.60;99.90
10010;DHT22;5044;48.652;9.250;2023-12-22T10:05:01;6.60;99.90
10010;DHT22;5044;48.652;9.250;2023-12-22T10:07:37;6.80;99.90
10010;DHT22;5044;48.652;9.250;2023-12-22T10:10:12;6.60;99.90
10010;DHT22;5044;48.652;9.250;2023-12-22T10:12:56;6.60;99.90
10010;DHT22;5044;48.652;9.250;2023-12-22T10:15:40;7.40;99.90
10010;DHT22;5044;48.652;9.250;2023-12-22T10:18:13;7.00;99.90
10010;DHT22;5044;48.652;9.250;2023-12-22T10:20:42;6.60;99.90
10010;DHT22;5044;48.652;9.250;2023-12-22T10:23:12;6.60;99.90
10010;DHT22;5044;48.652;9.250;2023-12-22T10:25:47;6.70;99.90
10010;DHT22;5044;48.652;9.250;2023-12-22T10:28:16;6.80;99.90
10010;DHT22;5044;48.652;9.250;2023-12-22T10:31:05;6.70;99.90
10010;DHT22;5044;48.652;9.250;2023-12-22T10:33:35;6.80;99.90
10010;DHT22;5044;48.652;9.250;2023-12-22T10:36:12;6.70;99.90
10010;DHT22;5044;48.652;9.250;2023-12-22T10:38:44;6.80;99.90
10010;DHT22;5044;48.652;9.250;2023-12-22T10:41:26;6.80;99.90
10010;DHT22;5044;48.652;9.250;2023-12-22T10:44:03;7.00;99.90
10010;DHT22;5044;48.652;9.250;2023-12-22T10:46:50;6.90;99.90
10010;DHT22;5044;48.652;9.250;2023-12-22T10:49:31;7.30;99.90
10010;DHT22;5044;48.652;9.250;2023-12-22T10:52:01;6.80;99.90
10010;DHT22;5044;48.652;9.250;2023-12-22T10:54:39;6.80;99.90
10010;DHT22;5044;48.652;9.250;2023-12-22T10:57:29;6.80;99.90
10010;DHT22;5044;48.652;9.250;2023-12-22T11:00:14;6.80;99.90
10010;DHT22;5044;48.652;9.250;2023-12-22T11:03:06;6.90;99.90
10010;DHT22;5044;48.652;9.250;2023-12-22T11:05:37;6.80;99.90
10010;DHT22;5044;48.652;9.250;2023-12-22T11:08:10;6.80;99.90
10010;DHT22;5044;48.652;9.250;2023-12-22T11:10:58;6.70;99.90
10010;DHT22;5044;48.652;9.250;2023-12-22T11:13:36;7.30;99.90
10010;DHT22;5044;48.652;9.250;2023-12-22T11:16:09;6.90;99.90
10010;DHT22;5044;48.652;9.250;2023-12-22T11:18:58;7.10;99.90
10010;DHT22;5044;48.652;9.250;2023-12-22T11:25:18;7.00;99.90
10010;DHT22;5044;48.652;9.250;2023-12-22T11:28:05;6.50;99.90
10010;DHT22;5044;48.652;9.250;2023-12-22T11:31:07;6.40;99.90
10010;DHT22;5044;48.652;9.250;2023-12-22T11:36:52;6.50;99.90
10010;DHT22;5044;48.652;9.250;2023-12-22T11:39:27;6.20;99.90
10010;DHT22;5044;48.652;9.250;2023-12-22T11:42:03;6.30;99.90
10010;DHT22;5044;48.652;9.250;2023-12-22T11:44:46;6.30;99.90
10010;DHT22;5044;48.652;9.250;2023-12-22T11:47:27;6.30;99.90
10010;DHT22;5044;48.652;9.250;2023-12-22T11:50:21;6.20;99.90
10010;DHT22;5044;48.652;9.250;2023-12-22T11:53:37;6.10;99.90
10010;DHT22;5044;48.652;9.250;2023-12-22T11:59:18;6.40;99.90
10010;DHT22;5044;48.652;9.250;2023-12-22T12:02:39;6.20;99.90
10010;DHT22;5044;48.652;9.250;2023-12-22T12:07:22;6.30;99.90
10010;DHT22;5044;48.652;9.250;2023-12-22T12:16:36;6.10;99.90
10010;DHT22;5044;48.652;9.250;2023-12-22T12:19:08;6.10;99.90
10010;DHT22;5044;48.652;9.250;2023-12-22T12:21:53;6.30;99.90
10010;DHT22;5044;48.652;9.250;2023-12-22T12:24:29;6.80;99.90
10010;DHT22;5044;48.652;9.250;2023-12-22T12:26:59;6.10;99.90
10010;DHT22;5044;48.652;9.250;2023-12-22T12:29:28;6.30;99.90
10010;DHT22;5044;48.652;9.250;2023-12-22T12:32:36;6.30;99.90
10010;DHT22;5044;48.652;9.250;2023-12-22T12:38:36;6.30;99.90
10010;DHT22;5044;48.652;9.250;2023-12-22T12:41:10;6.40;99.90
10010;DHT22;5044;48.652;9.250;2023-12-22T12:43:53;6.30;99.90
10010;DHT22;5044;48.652;9.250;2023-12-22T12:46:33;6.30;99.90
10010;DHT22;5044;48.652;9.250;2023-12-22T12:49:36;6.20;99.90
10010;DHT22;5044;48.652;9.250;2023-12-22T12:55:50;6.30;99.90
10010;DHT22;5044;48.652;9.250;2023-12-22T12:58:47;6.30;99.90
10010;DHT22;5044;48.652;9.250;2023-12-22T13:01:32;6.40;99.90
10010;DHT22;5044;48.652;9.250;2023-12-22T13:04:38;6.20;99.90
10010;DHT22;5044;48.652;9.250;2023-12-22T13:10:27;6.50;99.90
10010;DHT22;5044;48.652;9.250;2023-12-22T13:13:34;6.40;99.90
10010;DHT22;5044;48.652;9.250;2023-12-22T13:19:26;6.80;99.90
10010;DHT22;5044;48.652;9.250;2023-12-22T13:28:39;6.70;99.90
10010;DHT22;5044;48.652;9.250;2023-12-22T13:31:21;6.80;99.90
10010;DHT22;5044;48.652;9.250;2023-12-22T13:34:11;6.90;99.90
10010;DHT22;5044;48.652;9.250;2023-12-22T13:36:56;7.10;99.90
10010;DHT22;5044;48.652;9.250;2023-12-22T13:42:39;7.20;99.90
10010;DHT22;5044;48.652;9.250;2023-12-22T13:45:41;7.20;99.90
10010;DHT22;5044;48.652;9.250;2023-12-22T13:48:30;7.20;99.90
10010;DHT22;5044;48.652;9.250;2023-12-22T13:51:58;7.30;99.90
10010;DHT22;5044;48.652;9.250;2023-12-22T13:54:42;7.30;99.90
10010;DHT22;5044;48.652;9.250;2023-12-22T13:57:20;7.40;99.90
10010;DHT22;5044;48.652;9.250;2023-12-22T14:00:02;7.70;99.90
10010;DHT22;5044;48.652;9.250;2023-12-22T14:09:43;7.40;99.90
10010;DHT22;5044;48.652;9.250;2023-12-22T14:12:20;7.00;99.90
10010;DHT22;5044;48.652;9.250;2023-12-22T14:17:45;7.50;99.90
10010;DHT22;5044;48.652;9.250;2023-12-22T14:20:24;7.20;99.90
10010;DHT22;5044;48.652;9.250;2023-12-22T14:25:30;7.50;99.90
10010;DHT22;5044;48.652;9.250;2023-12-22T14:27:58;7.60;99.90
10010;DHT22;5044;48.652;9.250;2023-12-22T14:30:25;7.70;99.90
10010;DHT22;5044;48.652;9.250;2023-12-22T14:32:52;7.60;99.90
10010;DHT22;5044;48.652;9.250;2023-12-22T14:38:37;7.70;99.90
10010;DHT22;5044;48.652;9.250;2023-12-22T14:41:28;7.80;99.90
10010;DHT22;5044;48.652;9.250;2023-12-22T14:44:05;8.00;99.90
10010;DHT22;5044;48.652;9.250;2023-12-22T14:47:06;7.80;99.90
10010;DHT22;5044;48.652;9.250;2023-12-22T14:50:07;7.90;99.90
10010;DHT22;5044;48.652;9.250;2023-12-22T14:53:10;7.90;99.90
10010;DHT22;5044;48.652;9.250;2023-12-22T14:59:15;7.90;99.90
10010;DHT22;5044;48.652;9.250;2023-12-22T15:01:56;8.00;99.90
10010;DHT22;5044;48.652;9.250;2023-12-22T15:04:32;7.90;99.90
10010;DHT22;5044;48.652;9.250;2023-12-22T15:07:25;8.20;99.90
10010;DHT22;5044;48.652;9.250;2023-12-22T15:10:09;7.80;99.90
10010;DHT22;5044;48.652;9.250;2023-12-22T15:12:55;8.00;99.90
10010;DHT22;5044;48.652;9.250;2023-12-22T15:15:51;7.80;99.90
10010;DHT22;5044;48.652;9.250;2023-12-22T15:18:18;7.90;99.90
10010;DHT22;5044;48.652;9.250;2023-12-22T15:20:46;8.30;99.90
10010;DHT22;5044;48.652;9.250;2023-12-22T15:23:14;8.10;99.90
10010;DHT22;5044;48.652;9.250;2023-12-22T15:25:41;8.10;99.90
10010;DHT22;5044;48.652;9.250;2023-12-22T15:28:08;8.10;99.90
10010;DHT22;5044;48.652;9.250;2023-12-22T15:30:35;8.10;99.90
10010;DHT22;5044;48.652;9.250;2023-12-22T15:33:04;8.10;99.90
10010;DHT22;5044;48.652;9.250;2023-12-22T15:38:30;8.10;99.90
10010;DHT22;5044;48.652;9.250;2023-12-22T15:40:59;8.20;99.90
10010;DHT22;5044;48.652;9.250;2023-12-22T15:43:26;8.40;99.90
10010;DHT22;5044;48.652;9.250;2023-12-22T15:45:53;8.30;99.90
10010;DHT22;5044;48.652;9.250;2023-12-22T15:48:48;8.30;99.90
10010;DHT22;5044;48.652;9.250;2023-12-22T15:51:56;8.10;99.90
10010;DHT22;5044;48.652;9.250;2023-12-22T15:54:37;8.30;99.90
10010;DHT22;5044;48.652;9.250;2023-12-22T15:57:26;8.10;99.90
